Terminal Aerodrome Forecast
Issued by NWS Cleveland, OH

Home | Current Version | Previous Version | Graphics & Text | Print | Product List | Glossary On
Versions: 1 2 3 4 5 6 7 8 9 10 11 12 13 14 15 16 17 18 19 20 21 22 23 24 25 26 27
000
FTUS41 KCLE 152300
TAFYNG
TAF
KYNG 152340Z 1600/1624 14005KT 4SM BR BKN007
     FM160600 14005KT P6SM SCT015 OVC080
     FM161000 14008KT 5SM -RA BR OVC040
     FM161200 15009KT 3SM -RA BR OVC010=

USA.gov is the U.S. government's official web portal to all federal, state and local government web resources and services.